Esquina - Secu Tirs — 2DOU6 — position and weather

sailwx.info

Track history (hours):
 
Tides and Currents Weather Stations Pressure Air Temp Water Temp Dewpoint Dewpoint Depression Visibility Wind Speed Wind Dir Waves Ship Positions

Esquina - Secu Tirs

Last reported at 2017-Oct-17 07:30 UTC. Time now 2017-Oct-17 07:59 UTC.
Position N 47°35' W 003°11'.

Type: Other ship. MMSI: 235080801.

Date/timePositionNaut miles runAvg speedWind from/ knotsBaromVisibWave heightAir tempDewpointWater temp
2017-Oct-17 07:30N 47°35' W 003°11'1 2.6
2017-Oct-17 07:00N 47°34' W 003°12'0 0.2
2017-Oct-17 06:30N 47°34' W 003°12'1 2.1
2017-Oct-17 06:00N 47°35' W 003°13'3 6.8
2017-Oct-17 05:30N 47°37' W 003°17'3 6.2
2017-Oct-17 05:00N 47°40' W 003°20'3 5.9
2017-Oct-17 04:30N 47°42' W 003°22'2 4.3
2017-Oct-17 04:00N 47°44' W 003°21'2 0.1
2017-Oct-16 10:23N 47°43' W 003°21'0 0.0
2017-Oct-16 09:58N 47°43' W 003°21'0 0.0
2017-Oct-16 09:28N 47°43' W 003°21'0 0.0
2017-Oct-16 08:58N 47°43' W 003°21'0 0.1
2017-Oct-16 08:30N 47°43' W 003°21'1 2.6
2017-Oct-16 08:00N 47°42' W 003°22'1 2.4
2017-Oct-16 07:29N 47°43' W 003°21'0 0.0
2017-Oct-14 11:12N 47°43' W 003°21'0 0.0
2017-Oct-14 11:00N 47°43' W 003°21'0 0.0
2017-Oct-14 10:30N 47°43' W 003°21'0 0.0
2017-Oct-14 10:00N 47°43' W 003°21'0 0.0
2017-Oct-14 09:30N 47°43' W 003°21'0 0.0
2017-Oct-14 09:00N 47°43' W 003°21'1 2.2
2017-Oct-14 08:30N 47°44' W 003°22'1 0.1
2017-Oct-13 19:16N 47°43' W 003°21'1 2.1
2017-Oct-13 19:00N 47°42' W 003°22'4 7.1
2017-Oct-13 18:30N 47°39' W 003°19'4 7.5
2017-Oct-13 18:00N 47°37' W 003°15'3 5.5
2017-Oct-13 17:28N 47°36' W 003°11'1 2.3
2017-Oct-13 16:59N 47°35' W 003°12'0 0.9
2017-Oct-13 16:30N 47°35' W 003°13'1 1.8
2017-Oct-13 16:00N 47°36' W 003°12'1 1.8
2017-Oct-13 15:26N 47°35' W 003°13'1 2.1
2017-Oct-13 15:00N 47°35' W 003°12'0 0.8
2017-Oct-13 14:30N 47°35' W 003°12'0 0.3
2017-Oct-13 14:00N 47°35' W 003°12'0 0.1
2017-Oct-13 13:30N 47°35' W 003°12'0 0.9
2017-Oct-13 13:00N 47°35' W 003°13'1 2.5
2017-Oct-13 12:30N 47°36' W 003°11'2 3.5
2017-Oct-13 12:00N 47°35' W 003°13'1 2.8
2017-Oct-13 11:30N 47°35' W 003°11'1 2.1
2017-Oct-13 11:00N 47°36' W 003°10'0 0.4
2017-Oct-13 10:29N 47°36' W 003°11'0 0.3
2017-Oct-13 10:00N 47°36' W 003°11'0 0.4
2017-Oct-13 09:30N 47°36' W 003°11'0 0.9
2017-Oct-13 09:00N 47°35' W 003°11'0 0.8
2017-Oct-13 08:30N 47°36' W 003°11'612.5
2017-Oct-13 08:00N 47°39' W 003°19'4 7.4
2017-Oct-13 07:28N 47°43' W 003°21'0 0.0
2017-Oct-13 06:58N 47°43' W 003°21'0 0.0
2017-Oct-13 06:28N 47°43' W 003°21'0 0.0
2017-Oct-12 16:55N 47°43' W 003°21'3 7.7
2017-Oct-12 16:30N 47°40' W 003°20'510.3
2017-Oct-12 15:59N 47°36' W 003°15'1 1.9
2017-Oct-12 15:29N 47°35' W 003°14'1 1.2
2017-Oct-12 15:00N 47°36' W 003°14'1 1.3
2017-Oct-12 14:30N 47°35' W 003°14'1 1.7
2017-Oct-12 14:00N 47°35' W 003°12'1 1.5
2017-Oct-12 13:30N 47°35' W 003°11'1 2.2
2017-Oct-12 12:59N 47°36' W 003°10'0 0.6
2017-Oct-12 12:30N 47°36' W 003°10'0 1.0
2017-Oct-12 12:00N 47°36' W 003°11'2 3.1
2017-Oct-12 11:30N 47°35' W 003°13'0 0.5
2017-Oct-12 11:00N 47°35' W 003°13'0 0.5
2017-Oct-12 10:30N 47°35' W 003°12'0 0.7
2017-Oct-12 10:00N 47°35' W 003°12'1 1.2
2017-Oct-12 09:29N 47°36' W 003°11'1 1.4
2017-Oct-12 09:01N 47°36' W 003°10'1 1.5
2017-Oct-12 08:30N 47°36' W 003°11'1 1.5
2017-Oct-12 08:00N 47°36' W 003°10'0 0.1
2017-Oct-12 07:30N 47°36' W 003°10'5 9.6
2017-Oct-12 07:00N 47°38' W 003°17'510.4
2017-Oct-12 06:30N 47°41' W 003°22'1 2.7
2017-Oct-12 05:59N 47°43' W 003°21'0 0.0
2017-Oct-10 11:52N 47°43' W 003°21'2 5.5
2017-Oct-10 11:30N 47°41' W 003°22'510.4
2017-Oct-10 11:00N 47°38' W 003°16'4 7.1
2017-Oct-10 10:30N 47°36' W 003°11'1 1.1
2017-Oct-10 10:00N 47°36' W 003°10'0 0.5
2017-Oct-10 09:23N 47°36' W 003°10'0 0.9
2017-Oct-10 09:00N 47°36' W 003°11'0 0.3
2017-Oct-10 08:30N 47°36' W 003°11'0 0.2
2017-Oct-10 08:00N 47°36' W 003°11'0 0.5
2017-Oct-10 07:30N 47°36' W 003°10'0 0.4
2017-Oct-10 07:00N 47°36' W 003°10'0 0.5
2017-Oct-10 06:30N 47°37' W 003°10'1 1.8
2017-Oct-10 05:58N 47°36' W 003°11'3 5.8
2017-Oct-10 05:30N 47°37' W 003°15'612.2
2017-Oct-10 05:00N 47°40' W 003°22'2 4.7
2017-Oct-10 04:29N 47°43' W 003°21'0 0.0
2017-Oct-10 03:59N 47°43' W 003°21'0 0.0
2017-Oct-09 15:41N 47°43' W 003°21'1 4.5
2017-Oct-09 15:30N 47°43' W 003°22'1 1.2
2017-Oct-09 15:00N 47°43' W 003°22'611.3
2017-Oct-09 14:30N 47°38' W 003°17'5 9.1
2017-Oct-09 13:58N 47°36' W 003°10'0 0.3
2017-Oct-09 13:30N 47°36' W 003°11'0 0.3
2017-Oct-09 13:00N 47°36' W 003°11'0 0.4
2017-Oct-09 12:30N 47°36' W 003°10'0 0.6
2017-Oct-09 12:00N 47°36' W 003°11'0 0.4
2017-Oct-09 11:30N 47°36' W 003°10'0 0.1
2017-Oct-09 11:00N 47°36' W 003°10'0 0.3
2017-Oct-09 10:30N 47°36' W 003°10'0 0.4
2017-Oct-09 10:00N 47°36' W 003°10'0 0.7
2017-Oct-09 09:30N 47°37' W 003°10'0 0.3
2017-Oct-09 09:00N 47°36' W 003°10'0 0.4
2017-Oct-09 08:30N 47°36' W 003°10'0 0.7
2017-Oct-09 08:00N 47°37' W 003°10'0 0.7
2017-Oct-09 07:30N 47°36' W 003°10'0 0.4
2017-Oct-09 07:00N 47°37' W 003°10'1 1.9
2017-Oct-09 06:30N 47°36' W 003°11'1 1.0
2017-Oct-09 05:59N 47°36' W 003°10'3 6.9
2017-Oct-09 05:30N 47°37' W 003°15'611.3
2017-Oct-09 05:00N 47°40' W 003°22'3 5.1
2017-Oct-09 04:30N 47°43' W 003°21'0 0.0
2017-Oct-08 07:12N 47°43' W 003°21'0 0.0
2017-Oct-07 15:46N 47°43' W 003°21'1 5.1
2017-Oct-07 15:30N 47°41' W 003°22'3 5.0
2017-Oct-07 15:00N 47°40' W 003°19'2 5.1
2017-Oct-07 14:30N 47°39' W 003°16'3 6.0
2017-Oct-07 14:00N 47°37' W 003°13'1 2.1
2017-Oct-07 13:30N 47°36' W 003°11'1 1.2
2017-Oct-07 13:00N 47°36' W 003°11'1 1.4
2017-Oct-07 12:30N 47°35' W 003°11'0 0.6
2017-Oct-07 12:00N 47°35' W 003°11'1 2.2
2017-Oct-07 11:29N 47°35' W 003°13'0 0.9
2017-Oct-07 11:00N 47°35' W 003°12'0 0.4
2017-Oct-07 10:30N 47°35' W 003°12'0 0.7
2017-Oct-07 10:00N 47°35' W 003°13'0 0.6
2017-Oct-07 09:30N 47°35' W 003°13'510.6
2017-Oct-07 09:00N 47°39' W 003°19'4 8.6
2017-Oct-07 08:30N 47°43' W 003°21'0 0.2
2017-Oct-07 08:00N 47°43' W 003°21'  
Track history (hours):
 
Tides and Currents Weather Stations Pressure Air Temp Water Temp Dewpoint Dewpoint Depression Visibility Wind Speed Wind Dir Waves Ship Positions

Esquina - Secu Tirs

Last reported at 2017-Oct-17 07:30 UTC. Time now 2017-Oct-17 07:59 UTC.
Position N 47°35' W 003°11'.

Type: Other ship. MMSI: 235080801.

Date/timePositionNaut miles runAvg speedWind from/ knotsBaromVisibWave heightAir tempDewpointWater temp
2017-Oct-17 07:30N 47°35' W 003°11'1 2.6
2017-Oct-17 07:00N 47°34' W 003°12'0 0.2
2017-Oct-17 06:30N 47°34' W 003°12'1 2.1
2017-Oct-17 06:00N 47°35' W 003°13'3 6.8
2017-Oct-17 05:30N 47°37' W 003°17'3 6.2
2017-Oct-17 05:00N 47°40' W 003°20'3 5.9
2017-Oct-17 04:30N 47°42' W 003°22'2 4.3
2017-Oct-17 04:00N 47°44' W 003°21'2 0.1
2017-Oct-16 10:23N 47°43' W 003°21'0 0.0
2017-Oct-16 09:58N 47°43' W 003°21'0 0.0
2017-Oct-16 09:28N 47°43' W 003°21'0 0.0
2017-Oct-16 08:58N 47°43' W 003°21'0 0.1
2017-Oct-16 08:30N 47°43' W 003°21'1 2.6
2017-Oct-16 08:00N 47°42' W 003°22'1 2.4
2017-Oct-16 07:29N 47°43' W 003°21'0 0.0
2017-Oct-14 11:12N 47°43' W 003°21'0 0.0
2017-Oct-14 11:00N 47°43' W 003°21'0 0.0
2017-Oct-14 10:30N 47°43' W 003°21'0 0.0
2017-Oct-14 10:00N 47°43' W 003°21'0 0.0
2017-Oct-14 09:30N 47°43' W 003°21'0 0.0
2017-Oct-14 09:00N 47°43' W 003°21'1 2.2
2017-Oct-14 08:30N 47°44' W 003°22'1 0.1
2017-Oct-13 19:16N 47°43' W 003°21'1 2.1
2017-Oct-13 19:00N 47°42' W 003°22'4 7.1
2017-Oct-13 18:30N 47°39' W 003°19'4 7.5
2017-Oct-13 18:00N 47°37' W 003°15'3 5.5
2017-Oct-13 17:28N 47°36' W 003°11'1 2.3
2017-Oct-13 16:59N 47°35' W 003°12'0 0.9
2017-Oct-13 16:30N 47°35' W 003°13'1 1.8
2017-Oct-13 16:00N 47°36' W 003°12'1 1.8
2017-Oct-13 15:26N 47°35' W 003°13'1 2.1
2017-Oct-13 15:00N 47°35' W 003°12'0 0.8
2017-Oct-13 14:30N 47°35' W 003°12'0 0.3
2017-Oct-13 14:00N 47°35' W 003°12'0 0.1
2017-Oct-13 13:30N 47°35' W 003°12'0 0.9
2017-Oct-13 13:00N 47°35' W 003°13'1 2.5
2017-Oct-13 12:30N 47°36' W 003°11'2 3.5
2017-Oct-13 12:00N 47°35' W 003°13'1 2.8
2017-Oct-13 11:30N 47°35' W 003°11'1 2.1
2017-Oct-13 11:00N 47°36' W 003°10'0 0.4
2017-Oct-13 10:29N 47°36' W 003°11'0 0.3
2017-Oct-13 10:00N 47°36' W 003°11'0 0.4
2017-Oct-13 09:30N 47°36' W 003°11'0 0.9
2017-Oct-13 09:00N 47°35' W 003°11'0 0.8
2017-Oct-13 08:30N 47°36' W 003°11'612.5
2017-Oct-13 08:00N 47°39' W 003°19'4 7.4
2017-Oct-13 07:28N 47°43' W 003°21'0 0.0
2017-Oct-13 06:58N 47°43' W 003°21'0 0.0
2017-Oct-13 06:28N 47°43' W 003°21'0 0.0
2017-Oct-12 16:55N 47°43' W 003°21'3 7.7
2017-Oct-12 16:30N 47°40' W 003°20'510.3
2017-Oct-12 15:59N 47°36' W 003°15'1 1.9
2017-Oct-12 15:29N 47°35' W 003°14'1 1.2
2017-Oct-12 15:00N 47°36' W 003°14'1 1.3
2017-Oct-12 14:30N 47°35' W 003°14'1 1.7
2017-Oct-12 14:00N 47°35' W 003°12'1 1.5
2017-Oct-12 13:30N 47°35' W 003°11'1 2.2
2017-Oct-12 12:59N 47°36' W 003°10'0 0.6
2017-Oct-12 12:30N 47°36' W 003°10'0 1.0
2017-Oct-12 12:00N 47°36' W 003°11'2 3.1
2017-Oct-12 11:30N 47°35' W 003°13'0 0.5
2017-Oct-12 11:00N 47°35' W 003°13'0 0.5
2017-Oct-12 10:30N 47°35' W 003°12'0 0.7
2017-Oct-12 10:00N 47°35' W 003°12'1 1.2
2017-Oct-12 09:29N 47°36' W 003°11'1 1.4
2017-Oct-12 09:01N 47°36' W 003°10'1 1.5
2017-Oct-12 08:30N 47°36' W 003°11'1 1.5
2017-Oct-12 08:00N 47°36' W 003°10'0 0.1
2017-Oct-12 07:30N 47°36' W 003°10'5 9.6
2017-Oct-12 07:00N 47°38' W 003°17'510.4
2017-Oct-12 06:30N 47°41' W 003°22'1 2.7
2017-Oct-12 05:59N 47°43' W 003°21'0 0.0
2017-Oct-10 11:52N 47°43' W 003°21'2 5.5
2017-Oct-10 11:30N 47°41' W 003°22'510.4
2017-Oct-10 11:00N 47°38' W 003°16'4 7.1
2017-Oct-10 10:30N 47°36' W 003°11'1 1.1
2017-Oct-10 10:00N 47°36' W 003°10'0 0.5
2017-Oct-10 09:23N 47°36' W 003°10'0 0.9
2017-Oct-10 09:00N 47°36' W 003°11'0 0.3
2017-Oct-10 08:30N 47°36' W 003°11'0 0.2
2017-Oct-10 08:00N 47°36' W 003°11'0 0.5
2017-Oct-10 07:30N 47°36' W 003°10'0 0.4
2017-Oct-10 07:00N 47°36' W 003°10'0 0.5
2017-Oct-10 06:30N 47°37' W 003°10'1 1.8
2017-Oct-10 05:58N 47°36' W 003°11'3 5.8
2017-Oct-10 05:30N 47°37' W 003°15'612.2
2017-Oct-10 05:00N 47°40' W 003°22'2 4.7
2017-Oct-10 04:29N 47°43' W 003°21'0 0.0
2017-Oct-10 03:59N 47°43' W 003°21'0 0.0
2017-Oct-09 15:41N 47°43' W 003°21'1 4.5
2017-Oct-09 15:30N 47°43' W 003°22'1 1.2
2017-Oct-09 15:00N 47°43' W 003°22'611.3
2017-Oct-09 14:30N 47°38' W 003°17'5 9.1
2017-Oct-09 13:58N 47°36' W 003°10'0 0.3
2017-Oct-09 13:30N 47°36' W 003°11'0 0.3
2017-Oct-09 13:00N 47°36' W 003°11'0 0.4
2017-Oct-09 12:30N 47°36' W 003°10'0 0.6
2017-Oct-09 12:00N 47°36' W 003°11'0 0.4
2017-Oct-09 11:30N 47°36' W 003°10'0 0.1
2017-Oct-09 11:00N 47°36' W 003°10'0 0.3
2017-Oct-09 10:30N 47°36' W 003°10'0 0.4
2017-Oct-09 10:00N 47°36' W 003°10'0 0.7
2017-Oct-09 09:30N 47°37' W 003°10'0 0.3
2017-Oct-09 09:00N 47°36' W 003°10'0 0.4
2017-Oct-09 08:30N 47°36' W 003°10'0 0.7
2017-Oct-09 08:00N 47°37' W 003°10'0 0.7
2017-Oct-09 07:30N 47°36' W 003°10'0 0.4
2017-Oct-09 07:00N 47°37' W 003°10'1 1.9
2017-Oct-09 06:30N 47°36' W 003°11'1 1.0
2017-Oct-09 05:59N 47°36' W 003°10'3 6.9
2017-Oct-09 05:30N 47°37' W 003°15'611.3
2017-Oct-09 05:00N 47°40' W 003°22'3 5.1
2017-Oct-09 04:30N 47°43' W 003°21'0 0.0
2017-Oct-08 07:12N 47°43' W 003°21'0 0.0
2017-Oct-07 15:46N 47°43' W 003°21'1 5.1
2017-Oct-07 15:30N 47°41' W 003°22'3 5.0
2017-Oct-07 15:00N 47°40' W 003°19'2 5.1
2017-Oct-07 14:30N 47°39' W 003°16'3 6.0
2017-Oct-07 14:00N 47°37' W 003°13'1 2.1
2017-Oct-07 13:30N 47°36' W 003°11'1 1.2
2017-Oct-07 13:00N 47°36' W 003°11'1 1.4
2017-Oct-07 12:30N 47°35' W 003°11'0 0.6
2017-Oct-07 12:00N 47°35' W 003°11'1 2.2
2017-Oct-07 11:29N 47°35' W 003°13'0 0.9
2017-Oct-07 11:00N 47°35' W 003°12'0 0.4
2017-Oct-07 10:30N 47°35' W 003°12'0 0.7
2017-Oct-07 10:00N 47°35' W 003°13'0 0.6
2017-Oct-07 09:30N 47°35' W 003°13'510.6
2017-Oct-07 09:00N 47°39' W 003°19'4 8.6
2017-Oct-07 08:30N 47°43' W 003°21'0 0.2
2017-Oct-07 08:00N 47°43' W 003°21'  

Dump ship's entire track history